Time;durP1;ratioP1;P1;durP2;ratioP2;P2;SDS_P1;SDS_P2;PMS_P1;PMS_P2;Temp;Humidity;BMP_temperature;BMP_pressure;BME280_temperature;BME280_humidity;BME280_pressure;Samples;Min_cycle;Max_cycle;Signal;HPM_P1;HPM_P2
2022/01/15 00:00:30;;;;;;;;;;;;;;;2.98;90.53;103481.94;5039061;28;19936;-70
2022/01/15 00:02:55;;;;;;;;;;;;;;;2.96;90.36;103480.88;5023963;28;19924;-69
2022/01/15 00:05:21;;;;;;;;;;;;;;;2.95;90.75;103481.63;5025807;28;19923;-70
2022/01/15 00:07:48;;;;;;;;;;;;;;;2.93;90.73;103476.28;5008930;28;19964;-68
2022/01/15 00:10:14;;;;;;;;;;;;;;;2.93;90.70;103475.38;5020405;28;19909;-69
2022/01/15 00:12:40;;;;;;;;;;;;;;;2.94;90.92;103474.63;5019661;28;19920;-70
2022/01/15 00:15:08;;;;;;;;;;;;;;;2.91;91.07;103467.47;5019424;28;19926;-71
2022/01/15 00:17:49;;;;;;;;;;;;;;;2.91;90.89;103474.34;5019194;28;19956;-70
2022/01/15 00:20:16;;;;;;;;;;;;;;;2.87;90.94;103465.34;5018748;28;19917;-69
2022/01/15 00:22:41;;;;;;;;;;;;;;;2.86;90.82;103466.09;5018454;28;19913;-70
2022/01/15 00:25:07;;;;;;;;;;;;;;;2.87;90.93;103457.56;5018727;28;20247;-70
2022/01/15 00:27:32;;;;;;;;;;;;;;;2.84;90.91;103453.00;5030203;28;20169;-70
2022/01/15 00:29:57;;;;;;;;;;;;;;;2.85;90.96;103444.47;5037605;28;19909;-70
2022/01/15 00:32:22;;;;;;;;;;;;;;;2.85;90.55;103443.53;5037218;28;20011;-70
2022/01/15 00:34:48;;;;;;;;;;;;;;;2.81;90.70;103442.31;5037553;28;19992;-69
2022/01/15 00:37:13;;;;;;;;;;;;;;;2.83;91.05;103433.06;5028457;28;19913;-70
2022/01/15 00:39:38;;;;;;;;;;;;;;;2.81;90.76;103444.00;5018536;28;19910;-71
2022/01/15 00:42:05;;;;;;;;;;;;;;;2.81;91.00;103438.81;5018632;28;19909;-71
2022/01/15 00:44:30;;;;;;;;;;;;;;;2.80;91.37;103434.41;5018159;28;19909;-72
2022/01/15 00:46:56;;;;;;;;;;;;;;;2.79;90.96;103430.88;5020902;28;20004;-72
2022/01/15 00:49:21;;;;;;;;;;;;;;;2.79;91.05;103430.88;5021811;28;19983;-71
2022/01/15 00:51:47;;;;;;;;;;;;;;;2.83;91.10;103425.28;5021423;28;19913;-70
2022/01/15 00:54:15;;;;;;;;;;;;;;;2.82;91.40;103422.53;5022320;28;19979;-70
2022/01/15 00:56:40;;;;;;;;;;;;;;;2.78;90.94;103423.88;5022002;28;20015;-70
2022/01/15 00:59:05;;;;;;;;;;;;;;;2.77;91.01;103429.81;5021322;28;19948;-70
2022/01/15 01:01:30;;;;;;;;;;;;;;;2.75;91.11;103426.19;5021266;28;20350;-69
2022/01/15 01:03:56;;;;;;;;;;;;;;;2.72;91.30;103415.50;5020860;28;19913;-71
2022/01/15 01:06:21;;;;;;;;;;;;;;;2.69;91.08;103420.38;5033729;28;19923;-70
2022/01/15 01:08:46;;;;;;;;;;;;;;;2.66;91.29;103418.38;5041599;28;19995;-70
2022/01/15 01:11:14;;;;;;;;;;;;;;;2.71;91.33;103413.66;5041427;28;20211;-69
2022/01/15 01:24:18;;;;;;;;;;;;;;;2.52;90.54;103396.28;5041891;28;19913;-71
2022/01/15 01:26:49;;;;;;;;;;;;;;;2.47;90.87;103395.81;5040798;28;19949;-71
2022/01/15 01:29:30;;;;;;;;;;;;;;;2.46;90.56;103395.66;5042036;28;20010;-71
2022/01/15 01:34:23;;;;;;;;;;;;;;;2.47;91.14;103389.72;5042255;28;20027;-70
2022/01/15 01:36:59;;;;;;;;;;;;;;;2.47;91.17;103389.72;5036778;28;19968;-71
2022/01/15 01:39:33;;;;;;;;;;;;;;;2.52;91.17;103392.75;5022252;28;19932;-70
2022/01/15 01:45:05;;;;;;;;;;;;;;;2.50;91.42;103391.69;5021639;28;19920;-71
2022/01/15 01:47:40;;;;;;;;;;;;;;;2.46;91.27;103380.13;5030802;28;19913;-72
2022/01/15 01:50:10;;;;;;;;;;;;;;;2.44;91.06;103385.13;5041440;28;19917;-71
2022/01/15 01:52:35;;;;;;;;;;;;;;;2.45;91.41;103380.88;5041639;28;20019;-72
2022/01/15 01:55:00;;;;;;;;;;;;;;;2.44;91.54;103379.97;5043222;28;20015;-72
2022/01/15 01:57:26;;;;;;;;;;;;;;;2.42;91.32;103375.41;5044642;28;19913;-69
2022/01/15 01:59:51;;;;;;;;;;;;;;;2.42;91.44;103373.72;5052407;28;19913;-71
2022/01/15 02:02:16;;;;;;;;;;;;;;;2.42;91.29;103363.38;5042920;28;19909;-70
2022/01/15 02:04:41;;;;;;;;;;;;;;;2.42;91.57;103365.97;5041279;28;20004;-71
2022/01/15 02:07:07;;;;;;;;;;;;;;;2.41;91.45;103363.22;5040759;28;20008;-72
2022/01/15 02:09:32;;;;;;;;;;;;;;;2.38;91.48;103356.09;5040784;28;19909;-71
2022/01/15 02:11:57;;;;;;;;;;;;;;;2.37;91.67;103355.91;5040524;28;19944;-70
2022/01/15 02:14:26;;;;;;;;;;;;;;;2.38;91.70;103350.91;5040651;28;19936;-71
2022/01/15 02:16:52;;;;;;;;;;;;;;;2.38;91.44;103355.16;5040592;28;19944;-72
2022/01/15 02:19:17;;;;;;;;;;;;;;;2.37;91.58;103346.47;5039524;28;19908;-71
2022/01/15 02:24:13;;;;;;;;;;;;;;;2.36;91.67;103352.41;5040770;28;19931;-69
2022/01/15 02:26:39;;;;;;;;;;;;;;;2.35;91.67;103339.34;5040049;28;19913;-72
2022/01/15 02:29:05;;;;;;;;;;;;;;;2.32;91.58;103338.25;5043679;28;19935;-70
2022/01/15 02:31:30;;;;;;;;;;;;;;;2.35;91.65;103340.22;5042087;28;20402;-71
2022/01/15 02:33:56;;;;;;;;;;;;;;;2.32;91.46;103337.34;5038729;28;20015;-70
2022/01/15 02:36:23;;;;;;;;;;;;;;;2.31;91.79;103327.75;5036374;28;19917;-71
2022/01/15 02:38:48;;;;;;;;;;;;;;;2.34;91.65;103322.88;5021474;28;20053;-71
2022/01/15 02:41:14;;;;;;;;;;;;;;;2.33;91.42;103323.66;5027425;28;19909;-71
2022/01/15 02:43:39;;;;;;;;;;;;;;;2.38;91.54;103316.34;5021976;28;20299;-70
2022/01/15 02:46:33;;;;;;;;;;;;;;;2.31;91.50;103314.84;5021470;28;20284;-71
2022/01/15 02:48:59;;;;;;;;;;;;;;;2.28;91.42;103304.16;5019712;28;19909;-71
2022/01/15 02:51:26;;;;;;;;;;;;;;;2.25;91.24;103307.34;5019834;28;19995;-71
2022/01/15 02:53:57;;;;;;;;;;;;;;;2.23;91.29;103300.22;5019678;28;19928;-71
2022/01/15 02:56:29;;;;;;;;;;;;;;;2.18;91.34;103300.63;5021536;28;19913;-70
2022/01/15 02:58:55;;;;;;;;;;;;;;;2.19;91.51;103304.16;5022311;28;19992;-71
2022/01/15 03:01:20;;;;;;;;;;;;;;;2.20;91.32;103306.88;5039589;28;20251;-70
2022/01/15 03:03:45;;;;;;;;;;;;;;;2.21;91.52;103297.47;5038388;28;19916;-70
2022/01/15 03:06:11;;;;;;;;;;;;;;;2.22;91.25;103296.69;5037298;28;20279;-71
2022/01/15 03:08:37;;;;;;;;;;;;;;;2.18;91.50;103297.16;5038036;28;19916;-70
2022/01/15 03:11:03;;;;;;;;;;;;;;;2.17;91.48;103287.53;5038558;28;19971;-70
2022/01/15 03:13:29;;;;;;;;;;;;;;;2.16;91.44;103289.22;5038797;28;20311;-70
2022/01/15 03:15:54;;;;;;;;;;;;;;;2.16;91.49;103285.72;5038629;28;19944;-72
2022/01/15 03:18:19;;;;;;;;;;;;;;;2.16;91.72;103285.72;5038303;28;19909;-72
2022/01/15 03:20:45;;;;;;;;;;;;;;;2.12;91.59;103283.59;5038712;28;19909;-71
2022/01/15 03:23:13;;;;;;;;;;;;;;;2.10;91.45;103274.78;5037412;28;19920;-71
2022/01/15 03:25:38;;;;;;;;;;;;;;;2.11;91.66;103282.66;5038051;28;20333;-70
2022/01/15 03:28:03;;;;;;;;;;;;;;;2.10;91.59;103286.00;5039031;28;19971;-70
2022/01/15 03:30:29;;;;;;;;;;;;;;;2.10;91.64;103278.25;5021306;28;20393;-70
2022/01/15 03:32:54;;;;;;;;;;;;;;;2.10;91.75;103272.19;5037942;28;20172;-71
2022/01/15 03:35:19;;;;;;;;;;;;;;;2.09;91.55;103267.75;5035161;28;19952;-71
2022/01/15 03:37:45;;;;;;;;;;;;;;;2.06;91.62;103260.63;5037470;28;19952;-72
2022/01/15 03:40:11;;;;;;;;;;;;;;;2.06;91.65;103256.34;5037423;28;19912;-71
2022/01/15 03:42:36;;;;;;;;;;;;;;;2.09;91.79;103260.00;5038326;28;20294;-72
2022/01/15 03:45:02;;;;;;;;;;;;;;;2.02;91.61;103255.88;5038090;28;19927;-71
2022/01/15 03:47:27;;;;;;;;;;;;;;;1.96;91.46;103255.25;5038842;28;19909;-70
2022/01/15 03:49:52;;;;;;;;;;;;;;;1.94;91.57;103264.53;5037614;28;20000;-70
2022/01/15 03:52:17;;;;;;;;;;;;;;;1.90;91.88;103266.81;5038539;28;19931;-71
2022/01/15 03:54:43;;;;;;;;;;;;;;;1.88;91.38;103263.13;5025050;28;20207;-70
2022/01/15 03:57:08;;;;;;;;;;;;;;;1.92;91.50;103261.78;5018020;28;20327;-70
2022/01/15 03:59:33;;;;;;;;;;;;;;;1.89;91.47;103256.31;5022409;28;20187;-71
2022/01/15 04:01:58;;;;;;;;;;;;;;;1.85;91.36;103256.72;5037291;28;20171;-70
2022/01/15 04:04:24;;;;;;;;;;;;;;;1.88;91.48;103255.38;5037662;28;20007;-70
2022/01/15 04:06:52;;;;;;;;;;;;;;;1.86;91.47;103249.16;5037863;28;19908;-71
2022/01/15 04:09:17;;;;;;;;;;;;;;;1.85;91.45;103246.41;5038095;28;19909;-70
2022/01/15 04:11:43;;;;;;;;;;;;;;;1.84;91.54;103242.91;5037094;28;19924;-71
2022/01/15 04:14:08;;;;;;;;;;;;;;;1.78;91.26;103238.03;5037541;28;19939;-70
2022/01/15 04:16:33;;;;;;;;;;;;;;;1.76;91.36;103224.03;5037976;28;20175;-71
2022/01/15 04:18:59;;;;;;;;;;;;;;;1.78;91.61;103227.72;5037640;28;19924;-71
2022/01/15 04:21:24;;;;;;;;;;;;;;;1.78;91.71;103225.13;5023713;28;20004;-70
2022/01/15 04:23:50;;;;;;;;;;;;;;;1.81;91.62;103227.06;5017826;28;19919;-69
2022/01/15 04:26:15;;;;;;;;;;;;;;;1.82;91.46;103222.84;5018472;28;19967;-71
2022/01/15 04:28:41;;;;;;;;;;;;;;;1.83;91.80;103229.81;5018095;28;19976;-70
2022/01/15 04:31:07;;;;;;;;;;;;;;;1.91;91.65;103228.94;5018189;28;20180;-72
2022/01/15 04:33:34;;;;;;;;;;;;;;;1.87;91.67;103229.41;5017481;28;19924;-71
2022/01/15 04:35:59;;;;;;;;;;;;;;;1.85;91.66;103224.06;5018475;28;19917;-71
2022/01/15 04:38:24;;;;;;;;;;;;;;;1.80;91.47;103214.91;5017880;28;20188;-70
2022/01/15 04:40:50;;;;;;;;;;;;;;;1.77;91.30;103219.78;5024703;28;20004;-69
2022/01/15 04:43:15;;;;;;;;;;;;;;;1.74;91.62;103219.50;5037911;28;20161;-70
2022/01/15 04:45:40;;;;;;;;;;;;;;;1.71;91.28;103219.16;5037787;28;20310;-71
2022/01/15 04:48:06;;;;;;;;;;;;;;;1.67;91.56;103214.44;5037170;28;20183;-69
2022/01/15 04:50:31;;;;;;;;;;;;;;;1.66;91.62;103210.94;5032020;28;20181;-69
2022/01/15 04:52:56;;;;;;;;;;;;;;;1.68;91.65;103211.09;5017650;28;19917;-70
2022/01/15 04:55:25;;;;;;;;;;;;;;;1.67;91.34;103211.84;5017298;28;19984;-71
2022/01/15 04:57:50;;;;;;;;;;;;;;;1.67;91.75;103202.41;5000971;28;19909;-70
2022/01/15 05:00:16;;;;;;;;;;;;;;;1.63;91.62;103189.97;5019567;28;20021;-72
2022/01/15 05:02:41;;;;;;;;;;;;;;;1.54;91.54;103196.78;5037818;28;20291;-70
2022/01/15 05:05:07;;;;;;;;;;;;;;;1.49;91.48;103210.09;5036757;28;19934;-71
2022/01/15 05:07:32;;;;;;;;;;;;;;;1.48;91.43;103199.59;5037321;28;20003;-71
2022/01/15 05:09:57;;;;;;;;;;;;;;;1.42;91.42;103187.00;5037818;28;19909;-70
2022/01/15 05:12:31;;;;;;;;;;;;;;;1.40;91.30;103179.84;5018162;28;19933;-70
2022/01/15 05:14:57;;;;;;;;;;;;;;;1.40;91.59;103185.00;5017603;28;19913;-70
2022/01/15 05:17:22;;;;;;;;;;;;;;;1.41;91.63;103182.59;5017347;28;19917;-71
2022/01/15 05:19:47;;;;;;;;;;;;;;;1.41;91.69;103169.66;5018091;28;19998;-72
2022/01/15 05:22:13;;;;;;;;;;;;;;;1.43;91.46;103163.00;5018348;28;19909;-72
2022/01/15 05:24:38;;;;;;;;;;;;;;;1.36;91.56;103151.13;5016732;28;19929;-71
2022/01/15 05:27:03;;;;;;;;;;;;;;;1.36;91.45;103148.53;5030264;28;19921;-70
2022/01/15 05:29:28;;;;;;;;;;;;;;;1.36;91.50;103147.63;5037398;28;20031;-71
2022/01/15 05:31:53;;;;;;;;;;;;;;;1.35;91.58;103145.78;5038291;28;19909;-72
2022/01/15 05:34:22;;;;;;;;;;;;;;;1.36;91.54;103143.38;5040936;28;19967;-72
2022/01/15 05:36:47;;;;;;;;;;;;;;;1.39;91.37;103137.63;5030601;28;19917;-68
2022/01/15 05:39:13;;;;;;;;;;;;;;;1.36;91.63;103137.28;5020779;28;19940;-71
2022/01/15 05:41:38;;;;;;;;;;;;;;;1.36;91.60;103138.22;5020878;28;19910;-70
2022/01/15 05:44:03;;;;;;;;;;;;;;;1.30;91.46;103132.41;5020980;28;19917;-71
2022/01/15 05:46:29;;;;;;;;;;;;;;;1.25;91.57;103130.13;5021118;28;20314;-71
2022/01/15 05:48:54;;;;;;;;;;;;;;;1.23;91.47;103129.94;5020750;28;20031;-71
2022/01/15 05:51:20;;;;;;;;;;;;;;;1.21;91.63;103128.88;5020723;28;20008;-70
2022/01/15 05:53:45;;;;;;;;;;;;;;;1.25;91.71;103124.97;5020507;28;20008;-70
2022/01/15 05:56:10;;;;;;;;;;;;;;;1.26;91.73;103121.63;5021621;28;20329;-72
2022/01/15 05:58:35;;;;;;;;;;;;;;;1.27;91.78;103123.44;5019835;28;19988;-70
2022/01/15 06:01:01;;;;;;;;;;;;;;;1.25;91.79;103118.13;5020902;28;19913;-70
2022/01/15 06:03:26;;;;;;;;;;;;;;;1.20;91.86;103121.91;5030267;28;20283;-71
2022/01/15 06:05:51;;;;;;;;;;;;;;;1.22;91.84;103112.66;5040414;28;19913;-70
2022/01/15 06:08:16;;;;;;;;;;;;;;;1.19;91.72;103102.91;5039863;28;20015;-70
2022/01/15 06:10:42;;;;;;;;;;;;;;;1.22;91.61;103108.41;5039991;28;19952;-69
2022/01/15 06:13:07;;;;;;;;;;;;;;;1.21;91.65;103113.41;5038880;28;19940;-70
2022/01/15 06:15:32;;;;;;;;;;;;;;;1.18;91.38;103113.09;5039113;28;19908;-69
2022/01/15 06:17:58;;;;;;;;;;;;;;;1.15;91.61;103110.19;5039410;28;19952;-69
2022/01/15 06:20:23;;;;;;;;;;;;;;;1.12;91.53;103104.72;5039701;28;20246;-69
2022/01/15 06:22:48;;;;;;;;;;;;;;;1.14;91.77;103106.69;5035462;28;20192;-70
2022/01/15 06:25:13;;;;;;;;;;;;;;;1.11;91.77;103102.91;5020410;28;19914;-70
2022/01/15 06:27:38;;;;;;;;;;;;;;;1.12;91.88;103105.59;5019936;28;20019;-70
2022/01/15 06:30:04;;;;;;;;;;;;;;;1.14;91.93;103105.78;5020146;28;19996;-70
2022/01/15 06:32:35;;;;;;;;;;;;;;;1.18;91.99;103106.25;5019349;28;19909;-70
2022/01/15 06:35:01;;;;;;;;;;;;;;;1.16;91.52;103115.50;5039311;28;19913;-70
2022/01/15 06:37:26;;;;;;;;;;;;;;;1.14;91.91;103108.34;5039183;28;19908;-70
2022/01/15 06:39:51;;;;;;;;;;;;;;;1.15;91.46;103110.19;5038941;28;20012;-69
2022/01/15 06:42:16;;;;;;;;;;;;;;;1.13;91.98;103106.53;5039904;28;19909;-70
2022/01/15 06:44:41;;;;;;;;;;;;;;;1.14;92.17;103105.78;5020492;28;19913;-69
2022/01/15 06:47:07;;;;;;;;;;;;;;;1.14;91.75;103098.03;5019860;28;19909;-70
2022/01/15 06:49:32;;;;;;;;;;;;;;;1.15;92.11;103100.78;5019066;28;19910;-72
2022/01/15 06:51:57;;;;;;;;;;;;;;;1.15;92.22;103099.84;5019120;28;19913;-70
2022/01/15 06:54:22;;;;;;;;;;;;;;;1.16;92.01;103099.09;5034842;28;20303;-69
2022/01/15 06:56:48;;;;;;;;;;;;;;;1.18;92.28;103097.59;5039686;28;20204;-69
2022/01/15 06:59:13;;;;;;;;;;;;;;;1.23;92.17;103104.13;5039957;28;19919;-71
2022/01/15 07:01:39;;;;;;;;;;;;;;;1.25;92.36;103100.06;5038752;28;19919;-70
2022/01/15 07:04:04;;;;;;;;;;;;;;;1.22;91.89;103100.66;5026111;28;19921;-70
2022/01/15 07:06:29;;;;;;;;;;;;;;;1.27;91.86;103105.38;5031512;28;19909;-70
2022/01/15 07:08:54;;;;;;;;;;;;;;;1.26;91.86;103101.88;5038023;28;19917;-71
2022/01/15 07:11:19;;;;;;;;;;;;;;;1.32;91.65;103111.94;5038458;28;19999;-70
2022/01/15 07:13:45;;;;;;;;;;;;;;;1.29;91.34;103106.44;5039038;28;19913;-71
2022/01/15 07:16:10;;;;;;;;;;;;;;;1.22;91.58;103107.47;5039134;28;19916;-69
2022/01/15 07:18:35;;;;;;;;;;;;;;;1.28;91.76;103110.69;5033694;28;19917;-70
2022/01/15 07:21:00;;;;;;;;;;;;;;;1.23;91.79;103102.47;5019170;28;20266;-71
2022/01/15 07:23:26;;;;;;;;;;;;;;;1.21;91.58;103104.00;5018343;28;19905;-70
2022/01/15 07:25:51;;;;;;;;;;;;;;;1.20;91.83;103102.16;5019131;28;19920;-71
2022/01/15 07:28:18;;;;;;;;;;;;;;;1.19;91.92;103095.16;5019426;28;19909;-70
2022/01/15 07:30:43;;;;;;;;;;;;;;;1.22;91.89;103097.16;5038052;28;20271;-71
2022/01/15 07:33:09;;;;;;;;;;;;;;;1.21;92.15;103093.69;5038648;28;19913;-69
2022/01/15 07:35:34;;;;;;;;;;;;;;;1.21;91.96;103093.69;5037972;28;20362;-70
2022/01/15 07:38:00;;;;;;;;;;;;;;;1.22;92.26;103087.75;5021841;28;20279;-70
2022/01/15 07:40:25;;;;;;;;;;;;;;;1.26;91.68;103094.16;5020671;28;20196;-70
2022/01/15 07:42:50;;;;;;;;;;;;;;;1.28;92.34;103095.22;5019034;28;20295;-70
2022/01/15 07:45:16;;;;;;;;;;;;;;;1.30;92.17;103087.63;5018927;28;20228;-70
2022/01/15 07:47:41;;;;;;;;;;;;;;;1.29;92.17;103088.34;5019499;28;20335;-70
2022/01/15 07:50:08;;;;;;;;;;;;;;;1.28;92.14;103089.13;5033927;28;19913;-69
2022/01/15 07:52:33;;;;;;;;;;;;;;;1.30;92.08;103093.69;5039135;28;19909;-70
2022/01/15 07:55:00;;;;;;;;;;;;;;;1.28;91.94;103089.13;5038356;28;20015;-70
2022/01/15 07:57:25;;;;;;;;;;;;;;;1.24;91.82;103090.47;5034004;28;19918;-70
2022/01/15 07:59:51;;;;;;;;;;;;;;;1.20;91.69;103084.06;5002398;28;19921;-70
2022/01/15 08:02:16;;;;;;;;;;;;;;;1.19;91.86;103082.25;5018696;28;20268;-70
2022/01/15 08:04:42;;;;;;;;;;;;;;;1.20;91.91;103080.59;5018808;28;19967;-70
2022/01/15 08:07:09;;;;;;;;;;;;;;;1.20;91.93;103080.59;5005927;28;20307;-69
2022/01/15 08:09:34;;;;;;;;;;;;;;;1.18;92.03;103079.53;5029154;28;19956;-70
2022/01/15 08:11:59;;;;;;;;;;;;;;;1.18;91.86;103075.28;5018895;28;19913;-72
2022/01/15 08:14:24;;;;;;;;;;;;;;;1.20;91.96;103070.28;5025575;28;20271;-70
2022/01/15 08:16:50;;;;;;;;;;;;;;;1.18;91.92;103075.28;5039088;28;20302;-70
2022/01/15 08:19:15;;;;;;;;;;;;;;;1.14;92.11;103065.41;5038379;28;20253;-71
2022/01/15 08:21:41;;;;;;;;;;;;;;;1.17;92.04;103065.72;5038286;28;20330;-69
2022/01/15 08:24:06;;;;;;;;;;;;;;;1.21;92.08;103065.28;5035537;28;19913;-69
2022/01/15 08:26:31;;;;;;;;;;;;;;;1.23;92.00;103058.59;5025357;28;19924;-68
2022/01/15 08:28:57;;;;;;;;;;;;;;;1.25;92.00;103055.25;5039437;28;19908;-70
2022/01/15 08:31:22;;;;;;;;;;;;;;;1.26;91.99;103065.75;5037353;28;19935;-70
2022/01/15 08:33:47;;;;;;;;;;;;;;;1.23;91.81;103061.19;5034899;28;19917;-69
2022/01/15 08:36:13;;;;;;;;;;;;;;;1.25;91.92;103060.41;5003092;28;20260;-70
2022/01/15 08:38:38;;;;;;;;;;;;;;;1.29;92.17;103060.88;5019828;28;19913;-70
2022/01/15 08:41:03;;;;;;;;;;;;;;;1.35;92.12;103063.16;5029656;28;19913;-69
2022/01/15 08:43:29;;;;;;;;;;;;;;;1.32;91.94;103056.03;5029622;28;20295;-70
2022/01/15 08:45:54;;;;;;;;;;;;;;;1.37;91.91;103051.34;5027234;28;20263;-70
2022/01/15 08:48:19;;;;;;;;;;;;;;;1.39;91.95;103052.41;5023279;28;20308;-70
2022/01/15 08:50:46;;;;;;;;;;;;;;;1.39;91.89;103054.06;5025585;28;19917;-74
2022/01/15 08:53:13;;;;;;;;;;;;;;;1.32;91.93;103048.28;5027978;28;20227;-70
2022/01/15 08:55:39;;;;;;;;;;;;;;;1.33;91.93;103047.56;5027005;28;19919;-73
2022/01/15 08:58:04;;;;;;;;;;;;;;;1.42;91.92;103051.81;5021124;28;20000;-70
2022/01/15 09:00:30;;;;;;;;;;;;;;;1.46;91.64;103048.78;5037344;28;19940;-71
2022/01/15 09:02:55;;;;;;;;;;;;;;;1.42;91.60;103057.88;5037570;28;19920;-70
2022/01/15 09:05:21;;;;;;;;;;;;;;;1.46;91.68;103051.34;5037344;28;19909;-70
2022/01/15 09:07:46;;;;;;;;;;;;;;;1.47;91.64;103060.91;5040137;28;19913;-70
2022/01/15 09:10:11;;;;;;;;;;;;;;;1.45;91.51;103054.69;5043827;28;19917;-69
2022/01/15 09:12:37;;;;;;;;;;;;;;;1.49;91.95;103049.06;5058284;28;20222;-71
2022/01/15 09:15:02;;;;;;;;;;;;;;;1.51;91.43;103052.75;5034244;28;19924;-72
2022/01/15 09:17:27;;;;;;;;;;;;;;;1.54;91.42;103050.47;5021024;28;20176;-70
2022/01/15 09:19:53;;;;;;;;;;;;;;;1.53;91.51;103053.81;5020951;28;20291;-71
2022/01/15 09:22:18;;;;;;;;;;;;;;;1.53;91.40;103050.28;5025701;28;19960;-71
2022/01/15 09:24:45;;;;;;;;;;;;;;;1.53;91.50;103038.31;5022461;28;20296;-72
2022/01/15 09:30:12;;;;;;;;;;;;;;;1.57;91.65;103055.03;5029187;28;19919;-70
2022/01/15 09:32:37;;;;;;;;;;;;;;;1.61;91.55;103055.47;5040123;28;19951;-69
2022/01/15 09:35:03;;;;;;;;;;;;;;;1.53;91.35;103051.22;5039815;28;19917;-70
2022/01/15 09:37:28;;;;;;;;;;;;;;;1.53;91.53;103048.63;5023819;28;19909;-69
2022/01/15 09:39:53;;;;;;;;;;;;;;;1.51;91.73;103045.88;5021398;28;20184;-70
2022/01/15 09:42:19;;;;;;;;;;;;;;;1.53;91.76;103048.63;5019826;28;19948;-70
2022/01/15 09:44:44;;;;;;;;;;;;;;;1.58;91.54;103052.59;5019844;28;19953;-71
2022/01/15 09:47:11;;;;;;;;;;;;;;;1.59;91.73;103053.50;5020348;28;19920;-70
2022/01/15 09:49:37;;;;;;;;;;;;;;;1.56;91.66;103048.94;5037288;28;19932;-69
2022/01/15 09:52:03;;;;;;;;;;;;;;;1.56;91.74;103055.78;5023586;28;20347;-70
2022/01/15 09:54:28;;;;;;;;;;;;;;;1.54;91.82;103060.78;5039523;28;20015;-72
2022/01/15 09:56:53;;;;;;;;;;;;;;;1.57;91.73;103057.59;5039396;28;20012;-71
2022/01/15 09:59:22;;;;;;;;;;;;;;;1.58;91.70;103046.50;5039111;28;19987;-71
2022/01/15 10:01:47;;;;;;;;;;;;;;;1.64;91.44;103052.31;5040174;28;19935;-71
2022/01/15 10:04:13;;;;;;;;;;;;;;;1.62;91.94;103044.38;5039814;28;19909;-71
2022/01/15 10:06:58;;;;;;;;;;;;;;;1.61;91.84;103039.97;5040196;28;19909;-69
2022/01/15 10:09:23;;;;;;;;;;;;;;;1.65;91.76;103046.38;5020495;28;19913;-69
2022/01/15 10:11:52;;;;;;;;;;;;;;;1.68;91.67;103044.09;5019201;28;19924;-70
2022/01/15 10:14:26;;;;;;;;;;;;;;;1.71;91.81;103036.66;5019024;28;19924;-69
2022/01/15 10:16:51;;;;;;;;;;;;;;;1.79;91.75;103027.06;5020072;28;19917;-70
2022/01/15 10:19:33;;;;;;;;;;;;;;;1.81;91.60;103027.22;5019465;28;19924;-71
2022/01/15 10:22:18;;;;;;;;;;;;;;;1.77;91.13;103020.84;5040222;28;19971;-70
2022/01/15 10:24:53;;;;;;;;;;;;;;;1.81;91.48;103027.22;5039688;28;19909;-70
2022/01/15 10:27:19;;;;;;;;;;;;;;;1.85;91.40;103034.50;5040225;28;20298;-71
2022/01/15 10:29:49;;;;;;;;;;;;;;;1.78;91.10;103033.00;5039095;28;19909;-70
2022/01/15 10:32:14;;;;;;;;;;;;;;;1.76;91.17;103035.44;5020987;28;19929;-70
2022/01/15 10:34:41;;;;;;;;;;;;;;;1.80;91.35;103035.75;5021810;28;19920;-69
2022/01/15 10:37:07;;;;;;;;;;;;;;;1.84;91.49;103027.53;5039047;28;19909;-69
2022/01/15 10:39:33;;;;;;;;;;;;;;;1.83;91.23;103029.22;5039216;28;19928;-70
2022/01/15 10:41:58;;;;;;;;;;;;;;;1.84;91.28;103025.88;5017668;28;19913;-69
2022/01/15 10:44:31;;;;;;;;;;;;;;;1.89;91.35;103022.06;5039995;28;20215;-69
2022/01/15 10:47:04;;;;;;;;;;;;;;;1.90;91.33;103022.97;5013491;28;20001;-70
2022/01/15 10:49:29;;;;;;;;;;;;;;;1.89;91.20;103028.91;5020169;28;20271;-69
2022/01/15 10:52:10;;;;;;;;;;;;;;;1.88;91.11;103024.50;5020111;28;19916;-70
2022/01/15 10:54:48;;;;;;;;;;;;;;;1.95;91.04;103026.00;5019463;28;19925;-70
2022/01/15 10:57:14;;;;;;;;;;;;;;;1.91;90.43;103025.72;5019954;28;19913;-70
2022/01/15 10:59:39;;;;;;;;;;;;;;;1.91;90.25;103010.22;5033605;28;19909;-70
2022/01/15 11:02:17;;;;;;;;;;;;;;;1.92;89.68;103013.69;5039148;28;19909;-70
2022/01/15 11:04:42;;;;;;;;;;;;;;;1.91;89.87;103014.47;5039029;28;19912;-69
2022/01/15 11:07:11;;;;;;;;;;;;;;;1.90;89.83;103013.56;5038868;28;19909;-69
2022/01/15 11:09:37;;;;;;;;;;;;;;;1.91;89.74;103009.28;5039946;28;20058;-69
2022/01/15 11:12:04;;;;;;;;;;;;;;;1.92;89.84;103006.88;5039909;28;19956;-69
2022/01/15 11:14:29;;;;;;;;;;;;;;;1.96;89.94;103010.66;5039182;28;19980;-69
2022/01/15 11:16:56;;;;;;;;;;;;;;;1.95;89.80;103010.50;5040681;28;19921;-69
2022/01/15 11:19:22;;;;;;;;;;;;;;;2.02;89.60;103002.59;5038830;28;20008;-70
2022/01/15 11:21:47;;;;;;;;;;;;;;;1.99;89.65;102995.44;5040065;28;19936;-70
2022/01/15 11:24:13;;;;;;;;;;;;;;;2.04;89.84;102993.31;5038905;28;19909;-71
2022/01/15 11:26:38;;;;;;;;;;;;;;;2.06;89.63;102991.81;5039506;28;19909;-70
2022/01/15 11:29:03;;;;;;;;;;;;;;;2.10;89.30;102991.31;5038997;28;20283;-73
2022/01/15 11:31:30;;;;;;;;;;;;;;;2.09;88.58;102983.41;5026268;28;19924;-69
2022/01/15 11:33:56;;;;;;;;;;;;;;;2.12;88.78;102975.97;5018552;28;19914;-69
2022/01/15 11:36:38;;;;;;;;;;;;;;;2.14;88.66;102982.19;5020553;28;19909;-70
2022/01/15 11:39:04;;;;;;;;;;;;;;;2.17;88.56;102979.91;5040037;28;19909;-70
2022/01/15 11:41:29;;;;;;;;;;;;;;;2.13;88.69;102967.47;5038283;28;19992;-70
2022/01/15 11:43:54;;;;;;;;;;;;;;;2.09;88.40;102963.66;5038610;28;20287;-69
2022/01/15 11:46:21;;;;;;;;;;;;;;;2.16;88.56;102963.50;5038856;28;20322;-70
2022/01/15 11:48:46;;;;;;;;;;;;;;;2.16;88.79;102954.81;5037472;28;19991;-69
2022/01/15 11:51:15;;;;;;;;;;;;;;;2.24;88.62;102959.03;5036362;28;19925;-70
2022/01/15 11:53:47;;;;;;;;;;;;;;;2.24;87.92;102952.97;5025033;28;19925;-70
2022/01/15 11:56:22;;;;;;;;;;;;;;;2.26;88.04;102947.22;5034034;28;19951;-71
2022/01/15 11:58:47;;;;;;;;;;;;;;;2.25;87.81;102944.47;5003582;28;19917;-72
2022/01/15 12:01:31;;;;;;;;;;;;;;;2.21;87.52;102935.50;5027232;28;19934;-71
2022/01/15 12:04:15;;;;;;;;;;;;;;;2.20;87.16;102937.16;5036438;28;19932;-72
2022/01/15 12:06:59;;;;;;;;;;;;;;;2.19;86.91;102930.16;5034126;28;20323;-70
2022/01/15 12:09:38;;;;;;;;;;;;;;;2.20;87.29;102932.00;5019225;28;20000;-72
2022/01/15 12:12:31;;;;;;;;;;;;;;;2.19;86.92;102931.88;5025023;28;20263;-71
2022/01/15 12:15:00;;;;;;;;;;;;;;;2.22;87.23;102931.25;5038711;28;19924;-70
2022/01/15 12:17:30;;;;;;;;;;;;;;;2.22;86.93;102931.25;5035605;28;19913;-69
2022/01/15 12:19:55;;;;;;;;;;;;;;;2.24;86.69;102925.44;5023595;28;19976;-70
2022/01/15 12:22:40;;;;;;;;;;;;;;;2.22;86.37;102926.09;5026538;28;19913;-71
2022/01/15 12:25:12;;;;;;;;;;;;;;;2.12;85.73;102920.00;5034281;28;19963;-71
2022/01/15 12:27:39;;;;;;;;;;;;;;;2.08;85.97;102917.91;5022534;28;19964;-72
2022/01/15 12:30:11;;;;;;;;;;;;;;;2.05;86.20;102908.16;5021825;28;20326;-71
2022/01/15 12:32:38;;;;;;;;;;;;;;;2.04;86.53;102903.78;5020987;28;19947;-72
2022/01/15 12:35:04;;;;;;;;;;;;;;;2.09;86.82;102900.69;5038535;28;19913;-72
2022/01/15 12:37:30;;;;;;;;;;;;;;;2.04;86.12;102896.00;5020584;28;19920;-69
2022/01/15 12:39:55;;;;;;;;;;;;;;;2.02;87.01;102894.03;5040459;28;19913;-73
2022/01/15 12:42:27;;;;;;;;;;;;;;;2.07;86.73;102895.41;5036577;28;20303;-70
2022/01/15 12:44:53;;;;;;;;;;;;;;;2.08;87.07;102898.88;5023329;28;19956;-71
2022/01/15 12:47:20;;;;;;;;;;;;;;;2.13;87.06;102895.06;5024249;28;19964;-71
2022/01/15 12:49:46;;;;;;;;;;;;;;;2.18;87.16;102893.84;5023468;28;19910;-71
2022/01/15 12:52:12;;;;;;;;;;;;;;;2.20;86.92;102892.31;5024849;28;20007;-71
2022/01/15 12:54:37;;;;;;;;;;;;;;;2.15;86.27;102894.47;5026933;28;20047;-70
2022/01/15 12:57:02;;;;;;;;;;;;;;;2.13;85.92;102892.50;5027297;28;19923;-70
2022/01/15 12:59:27;;;;;;;;;;;;;;;2.11;86.23;102892.34;5044279;28;19909;-70
2022/01/15 13:01:53;;;;;;;;;;;;;;;2.14;86.65;102891.72;5044564;28;19957;-71
2022/01/15 13:04:18;;;;;;;;;;;;;;;2.15;86.60;102896.13;5043706;28;19960;-72
2022/01/15 13:06:49;;;;;;;;;;;;;;;2.17;86.05;102892.00;5043732;28;19908;-71